sensor_id;sensor_type;location;lat;lon;timestamp;pressure;altitude;pressure_sealevel;temperature
77355;BMP280;66422;51.202;19.936;2023-05-16T00:06:16;98690.83;;;12.06
77355;BMP280;66422;51.202;19.936;2023-05-16T00:21:37;98698.52;;;12.04
77355;BMP280;66422;51.202;19.936;2023-05-16T00:36:57;98714.48;;;11.76
77355;BMP280;66422;51.202;19.936;2023-05-16T00:52:16;98721.94;;;11.98
77355;BMP280;66422;51.202;19.936;2023-05-16T01:07:36;98737.86;;;11.79
77355;BMP280;66422;51.202;19.936;2023-05-16T01:23:11;98732.41;;;11.56
77355;BMP280;66422;51.202;19.936;2023-05-16T01:38:43;98733.14;;;11.49
77355;BMP280;66422;51.202;19.936;2023-05-16T01:54:05;98746.77;;;11.51
77355;BMP280;66422;51.202;19.936;2023-05-16T02:09:29;98762.71;;;11.20
77355;BMP280;66422;51.202;19.936;2023-05-16T02:24:48;98756.15;;;11.24
77355;BMP280;66422;51.202;19.936;2023-05-16T02:40:08;98763.23;;;11.11
77355;BMP280;66422;51.202;19.936;2023-05-16T02:55:29;98746.46;;;11.15
77355;BMP280;66422;51.202;19.936;2023-05-16T03:10:50;98753.50;;;11.24
77355;BMP280;66422;51.202;19.936;2023-05-16T03:26:10;98762.95;;;11.33
77355;BMP280;66422;51.202;19.936;2023-05-16T03:41:29;98765.70;;;11.47
77355;BMP280;66422;51.202;19.936;2023-05-16T03:56:49;98784.08;;;11.46
77355;BMP280;66422;51.202;19.936;2023-05-16T04:12:09;98792.93;;;11.79
77355;BMP280;66422;51.202;19.936;2023-05-16T04:27:29;98798.95;;;12.13
77355;BMP280;66422;51.202;19.936;2023-05-16T04:42:49;98810.13;;;12.75
77355;BMP280;66422;51.202;19.936;2023-05-16T04:58:09;98826.18;;;13.49
77355;BMP280;66422;51.202;19.936;2023-05-16T05:13:28;98844.27;;;14.21
77355;BMP280;66422;51.202;19.936;2023-05-16T05:28:48;98931.60;;;20.27
77355;BMP280;66422;51.202;19.936;2023-05-16T05:44:08;98951.95;;;21.87
77355;BMP280;66422;51.202;19.936;2023-05-16T05:59:28;98967.77;;;22.30
77355;BMP280;66422;51.202;19.936;2023-05-16T06:14:48;98981.80;;;22.65
77355;BMP280;66422;51.202;19.936;2023-05-16T06:30:07;99003.24;;;22.89
77355;BMP280;66422;51.202;19.936;2023-05-16T06:45:27;98968.14;;;19.35
77355;BMP280;66422;51.202;19.936;2023-05-16T07:00:48;98967.52;;;18.81
77355;BMP280;66422;51.202;19.936;2023-05-16T07:16:08;98969.40;;;19.37
77355;BMP280;66422;51.202;19.936;2023-05-16T07:31:27;98965.11;;;19.93
77355;BMP280;66422;51.202;19.936;2023-05-16T07:46:47;98966.80;;;20.46
77355;BMP280;66422;51.202;19.936;2023-05-16T08:02:07;98960.00;;;20.94
77355;BMP280;66422;51.202;19.936;2023-05-16T08:17:27;98951.30;;;20.74
77355;BMP280;66422;51.202;19.936;2023-05-16T08:32:47;98965.94;;;20.80
77355;BMP280;66422;51.202;19.936;2023-05-16T08:48:09;98999.58;;;20.56
77355;BMP280;66422;51.202;19.936;2023-05-16T09:03:29;99043.34;;;21.39
77355;BMP280;66422;51.202;19.936;2023-05-16T09:18:57;99050.39;;;22.07
77355;BMP280;66422;51.202;19.936;2023-05-16T09:34:21;99066.55;;;22.37
77355;BMP280;66422;51.202;19.936;2023-05-16T09:49:43;99076.94;;;22.04
77355;BMP280;66422;51.202;19.936;2023-05-16T10:05:03;99074.89;;;22.71
77355;BMP280;66422;51.202;19.936;2023-05-16T10:20:24;99068.55;;;21.85
77355;BMP280;66422;51.202;19.936;2023-05-16T10:35:45;99059.16;;;22.30
77355;BMP280;66422;51.202;19.936;2023-05-16T10:51:34;99073.34;;;22.03
77355;BMP280;66422;51.202;19.936;2023-05-16T11:06:56;99085.13;;;22.41
77355;BMP280;66422;51.202;19.936;2023-05-16T11:22:35;99091.05;;;22.57
77355;BMP280;66422;51.202;19.936;2023-05-16T11:37:59;99070.09;;;22.61
77355;BMP280;66422;51.202;19.936;2023-05-16T11:53:19;99089.88;;;23.42
77355;BMP280;66422;51.202;19.936;2023-05-16T12:08:49;99087.90;;;22.52
77355;BMP280;66422;51.202;19.936;2023-05-16T12:24:10;99101.62;;;22.61
77355;BMP280;66422;51.202;19.936;2023-05-16T12:39:36;99098.58;;;21.20
77355;BMP280;66422;51.202;19.936;2023-05-16T12:54:56;99112.52;;;21.73
77355;BMP280;66422;51.202;19.936;2023-05-16T13:10:17;99112.06;;;22.43
77355;BMP280;66422;51.202;19.936;2023-05-16T13:25:37;99106.45;;;21.85
77355;BMP280;66422;51.202;19.936;2023-05-16T14:21:46;99110.15;;;21.04
77355;BMP280;66422;51.202;19.936;2023-05-16T14:37:06;99111.28;;;21.02
77355;BMP280;66422;51.202;19.936;2023-05-16T14:52:26;99105.87;;;20.79
77355;BMP280;66422;51.202;19.936;2023-05-16T15:07:45;99115.02;;;20.69
77355;BMP280;66422;51.202;19.936;2023-05-16T15:23:05;99106.46;;;20.80
77355;BMP280;66422;51.202;19.936;2023-05-16T15:38:24;99096.30;;;21.04
77355;BMP280;66422;51.202;19.936;2023-05-16T15:53:46;99087.35;;;20.77
77355;BMP280;66422;51.202;19.936;2023-05-16T16:09:06;99078.97;;;20.06
77355;BMP280;66422;51.202;19.936;2023-05-16T16:24:26;99065.56;;;19.74
77355;BMP280;66422;51.202;19.936;2023-05-16T16:39:46;99043.14;;;19.25
77355;BMP280;66422;51.202;19.936;2023-05-16T16:55:06;99055.17;;;19.05
77355;BMP280;66422;51.202;19.936;2023-05-16T17:10:26;99083.85;;;18.89
77355;BMP280;66422;51.202;19.936;2023-05-16T17:25:46;99095.56;;;19.00
77355;BMP280;66422;51.202;19.936;2023-05-16T17:41:05;99104.11;;;18.80
77355;BMP280;66422;51.202;19.936;2023-05-16T17:56:25;99109.41;;;18.50
77355;BMP280;66422;51.202;19.936;2023-05-16T18:11:45;99099.42;;;17.59
77355;BMP280;66422;51.202;19.936;2023-05-16T18:27:05;99093.22;;;17.13
77355;BMP280;66422;51.202;19.936;2023-05-16T18:42:24;99108.61;;;16.78
77355;BMP280;66422;51.202;19.936;2023-05-16T18:57:45;99136.52;;;16.75
77355;BMP280;66422;51.202;19.936;2023-05-16T19:13:04;99153.33;;;16.80
77355;BMP280;66422;51.202;19.936;2023-05-16T19:28:26;99168.33;;;16.34
77355;BMP280;66422;51.202;19.936;2023-05-16T19:43:46;99176.16;;;15.87
77355;BMP280;66422;51.202;19.936;2023-05-16T19:59:06;99173.25;;;15.77
77355;BMP280;66422;51.202;19.936;2023-05-16T20:14:26;99166.34;;;16.03
77355;BMP280;66422;51.202;19.936;2023-05-16T20:29:47;99173.15;;;15.80
77355;BMP280;66422;51.202;19.936;2023-05-16T20:45:14;99180.59;;;15.47
77355;BMP280;66422;51.202;19.936;2023-05-16T21:00:33;99193.33;;;15.52
77355;BMP280;66422;51.202;19.936;2023-05-16T21:15:53;99191.34;;;15.18
77355;BMP280;66422;51.202;19.936;2023-05-16T21:31:13;99203.46;;;14.63
77355;BMP280;66422;51.202;19.936;2023-05-16T21:46:33;99200.33;;;14.49
77355;BMP280;66422;51.202;19.936;2023-05-16T22:01:52;99177.98;;;14.76
77355;BMP280;66422;51.202;19.936;2023-05-16T22:17:12;99166.61;;;14.17
77355;BMP280;66422;51.202;19.936;2023-05-16T22:32:32;99139.79;;;14.21
77355;BMP280;66422;51.202;19.936;2023-05-16T22:47:52;99139.38;;;14.19
77355;BMP280;66422;51.202;19.936;2023-05-16T23:03:11;99138.03;;;14.30
77355;BMP280;66422;51.202;19.936;2023-05-16T23:18:31;99133.81;;;13.95
77355;BMP280;66422;51.202;19.936;2023-05-16T23:33:51;99129.56;;;14.16
77355;BMP280;66422;51.202;19.936;2023-05-16T23:49:10;99120.90;;;14.27
